sensor_id;sensor_type;location;lat;lon;timestamp;temperature;humidity
19033;DHT22;9649;51.042;13.804;2023-05-07T00:04:52;11.70;1.00
19033;DHT22;9649;51.042;13.804;2023-05-07T00:09:56;11.70;1.00
19033;DHT22;9649;51.042;13.804;2023-05-07T00:14:58;11.60;1.00
19033;DHT22;9649;51.042;13.804;2023-05-07T00:20:02;11.60;1.00
19033;DHT22;9649;51.042;13.804;2023-05-07T00:25:07;11.50;1.00
19033;DHT22;9649;51.042;13.804;2023-05-07T00:30:11;11.50;1.00
19033;DHT22;9649;51.042;13.804;2023-05-07T00:35:14;11.50;1.00
19033;DHT22;9649;51.042;13.804;2023-05-07T00:40:18;11.40;1.00
19033;DHT22;9649;51.042;13.804;2023-05-07T00:45:21;11.40;1.00
19033;DHT22;9649;51.042;13.804;2023-05-07T00:50:23;11.40;1.00
19033;DHT22;9649;51.042;13.804;2023-05-07T00:55:28;11.50;1.00
19033;DHT22;9649;51.042;13.804;2023-05-07T01:00:31;11.30;1.00
19033;DHT22;9649;51.042;13.804;2023-05-07T01:05:34;11.40;1.00
19033;DHT22;9649;51.042;13.804;2023-05-07T01:10:39;11.50;1.00
19033;DHT22;9649;51.042;13.804;2023-05-07T01:15:44;11.50;1.00
19033;DHT22;9649;51.042;13.804;2023-05-07T01:20:47;11.40;1.00
19033;DHT22;9649;51.042;13.804;2023-05-07T01:25:54;11.20;1.00
19033;DHT22;9649;51.042;13.804;2023-05-07T01:31:00;11.20;1.00
19033;DHT22;9649;51.042;13.804;2023-05-07T01:36:05;11.30;1.00
19033;DHT22;9649;51.042;13.804;2023-05-07T01:41:11;11.30;1.00
19033;DHT22;9649;51.042;13.804;2023-05-07T01:46:15;11.20;1.00
19033;DHT22;9649;51.042;13.804;2023-05-07T01:51:18;11.20;1.00
19033;DHT22;9649;51.042;13.804;2023-05-07T01:56:24;11.20;1.00
19033;DHT22;9649;51.042;13.804;2023-05-07T02:01:27;11.30;1.00
19033;DHT22;9649;51.042;13.804;2023-05-07T02:06:30;11.20;1.00
19033;DHT22;9649;51.042;13.804;2023-05-07T02:11:34;11.30;1.00
19033;DHT22;9649;51.042;13.804;2023-05-07T02:16:37;11.30;1.00
19033;DHT22;9649;51.042;13.804;2023-05-07T02:21:40;11.20;1.00
19033;DHT22;9649;51.042;13.804;2023-05-07T02:26:44;11.10;1.00
19033;DHT22;9649;51.042;13.804;2023-05-07T02:31:46;11.20;1.00
19033;DHT22;9649;51.042;13.804;2023-05-07T02:36:52;11.00;1.00
19033;DHT22;9649;51.042;13.804;2023-05-07T02:41:56;10.80;1.00
19033;DHT22;9649;51.042;13.804;2023-05-07T02:46:59;11.10;1.00
19033;DHT22;9649;51.042;13.804;2023-05-07T02:52:01;11.10;1.00
19033;DHT22;9649;51.042;13.804;2023-05-07T02:57:06;11.00;1.00
19033;DHT22;9649;51.042;13.804;2023-05-07T03:02:08;11.00;1.00
19033;DHT22;9649;51.042;13.804;2023-05-07T03:07:11;11.00;1.00
19033;DHT22;9649;51.042;13.804;2023-05-07T03:12:15;11.00;1.00
19033;DHT22;9649;51.042;13.804;2023-05-07T03:17:18;10.90;1.00
19033;DHT22;9649;51.042;13.804;2023-05-07T03:22:21;10.80;1.00
19033;DHT22;9649;51.042;13.804;2023-05-07T03:27:25;10.80;1.00
19033;DHT22;9649;51.042;13.804;2023-05-07T03:32:28;10.70;1.00
19033;DHT22;9649;51.042;13.804;2023-05-07T03:37:30;10.80;1.00
19033;DHT22;9649;51.042;13.804;2023-05-07T03:42:34;10.70;1.00
19033;DHT22;9649;51.042;13.804;2023-05-07T03:47:37;10.70;1.00
19033;DHT22;9649;51.042;13.804;2023-05-07T03:52:40;10.70;1.00
19033;DHT22;9649;51.042;13.804;2023-05-07T03:57:44;10.70;1.10
19033;DHT22;9649;51.042;13.804;2023-05-07T04:02:47;10.70;4.30
19033;DHT22;9649;51.042;13.804;2023-05-07T04:07:50;10.50;67.00
19033;DHT22;9649;51.042;13.804;2023-05-07T04:12:54;10.50;99.90
19033;DHT22;9649;51.042;13.804;2023-05-07T04:17:56;10.60;28.20
19033;DHT22;9649;51.042;13.804;2023-05-07T04:22:59;10.80;5.00
19033;DHT22;9649;51.042;13.804;2023-05-07T04:28:03;11.00;1.00
19033;DHT22;9649;51.042;13.804;2023-05-07T04:33:07;11.10;1.00
19033;DHT22;9649;51.042;13.804;2023-05-07T04:38:10;11.20;1.00
19033;DHT22;9649;51.042;13.804;2023-05-07T04:43:14;11.50;1.00
19033;DHT22;9649;51.042;13.804;2023-05-07T04:48:17;11.70;99.90
19033;DHT22;9649;51.042;13.804;2023-05-07T04:53:22;11.70;99.90
19033;DHT22;9649;51.042;13.804;2023-05-07T04:58:26;11.70;99.90
19033;DHT22;9649;51.042;13.804;2023-05-07T05:03:28;11.60;1.00
19033;DHT22;9649;51.042;13.804;2023-05-07T05:08:31;11.40;1.00
19033;DHT22;9649;51.042;13.804;2023-05-07T05:13:36;11.30;1.00
19033;DHT22;9649;51.042;13.804;2023-05-07T05:18:38;11.10;1.00
19033;DHT22;9649;51.042;13.804;2023-05-07T05:23:41;11.30;1.00
19033;DHT22;9649;51.042;13.804;2023-05-07T05:28:45;11.40;1.00
19033;DHT22;9649;51.042;13.804;2023-05-07T05:33:48;11.70;1.00
19033;DHT22;9649;51.042;13.804;2023-05-07T05:38:51;12.10;1.00
19033;DHT22;9649;51.042;13.804;2023-05-07T05:43:55;12.60;1.00
19033;DHT22;9649;51.042;13.804;2023-05-07T05:48:57;13.00;1.00
19033;DHT22;9649;51.042;13.804;2023-05-07T05:54:00;13.30;1.00
19033;DHT22;9649;51.042;13.804;2023-05-07T05:59:04;13.20;99.90
19033;DHT22;9649;51.042;13.804;2023-05-07T06:04:07;13.00;99.90
19033;DHT22;9649;51.042;13.804;2023-05-07T06:09:10;13.00;71.60
19033;DHT22;9649;51.042;13.804;2023-05-07T06:14:14;12.80;1.00
19033;DHT22;9649;51.042;13.804;2023-05-07T06:19:17;12.80;2.90
19033;DHT22;9649;51.042;13.804;2023-05-07T06:24:24;12.60;99.90
19033;DHT22;9649;51.042;13.804;2023-05-07T06:29:29;12.70;99.90
19033;DHT22;9649;51.042;13.804;2023-05-07T06:34:34;12.80;54.90
19033;DHT22;9649;51.042;13.804;2023-05-07T06:39:36;12.60;1.00
19033;DHT22;9649;51.042;13.804;2023-05-07T06:44:40;12.40;1.00
19033;DHT22;9649;51.042;13.804;2023-05-07T06:49:43;12.00;99.90
19033;DHT22;9649;51.042;13.804;2023-05-07T06:54:46;12.10;1.00
19033;DHT22;9649;51.042;13.804;2023-05-07T06:59:50;12.10;1.00
19033;DHT22;9649;51.042;13.804;2023-05-07T07:04:53;12.10;1.00
19033;DHT22;9649;51.042;13.804;2023-05-07T07:09:56;12.20;1.00
19033;DHT22;9649;51.042;13.804;2023-05-07T07:15:00;12.10;99.90
19033;DHT22;9649;51.042;13.804;2023-05-07T07:20:05;12.20;1.00
19033;DHT22;9649;51.042;13.804;2023-05-07T07:25:08;12.40;99.90
19033;DHT22;9649;51.042;13.804;2023-05-07T07:30:14;12.70;41.00
19033;DHT22;9649;51.042;13.804;2023-05-07T07:35:17;12.70;1.00
19033;DHT22;9649;51.042;13.804;2023-05-07T07:40:19;12.70;99.90
19033;DHT22;9649;51.042;13.804;2023-05-07T07:45:23;12.80;1.00
19033;DHT22;9649;51.042;13.804;2023-05-07T07:50:26;12.80;1.00
19033;DHT22;9649;51.042;13.804;2023-05-07T07:55:46;12.80;1.00
19033;DHT22;9649;51.042;13.804;2023-05-07T08:00:50;12.70;1.00
19033;DHT22;9649;51.042;13.804;2023-05-07T08:05:52;12.80;99.90
19033;DHT22;9649;51.042;13.804;2023-05-07T08:10:55;12.80;1.00
19033;DHT22;9649;51.042;13.804;2023-05-07T08:15:59;12.80;99.90
19033;DHT22;9649;51.042;13.804;2023-05-07T08:21:02;13.10;62.20
19033;DHT22;9649;51.042;13.804;2023-05-07T08:26:05;13.20;1.00
19033;DHT22;9649;51.042;13.804;2023-05-07T08:31:09;13.30;1.00
19033;DHT22;9649;51.042;13.804;2023-05-07T08:36:11;13.60;1.00
19033;DHT22;9649;51.042;13.804;2023-05-07T08:41:14;13.90;1.00
19033;DHT22;9649;51.042;13.804;2023-05-07T08:46:20;14.10;1.00
19033;DHT22;9649;51.042;13.804;2023-05-07T08:51:23;14.40;99.90
19033;DHT22;9649;51.042;13.804;2023-05-07T08:56:25;14.40;99.90
19033;DHT22;9649;51.042;13.804;2023-05-07T09:01:29;14.20;99.90
19033;DHT22;9649;51.042;13.804;2023-05-07T09:06:32;13.70;1.00
19033;DHT22;9649;51.042;13.804;2023-05-07T09:11:36;14.10;1.00
19033;DHT22;9649;51.042;13.804;2023-05-07T09:16:40;14.80;99.90
19033;DHT22;9649;51.042;13.804;2023-05-07T09:21:42;14.80;1.00
19033;DHT22;9649;51.042;13.804;2023-05-07T09:26:45;14.50;99.90
19033;DHT22;9649;51.042;13.804;2023-05-07T09:31:49;14.50;99.90
19033;DHT22;9649;51.042;13.804;2023-05-07T09:36:53;14.70;1.00
19033;DHT22;9649;51.042;13.804;2023-05-07T09:41:56;14.70;1.00
19033;DHT22;9649;51.042;13.804;2023-05-07T09:47:02;14.20;6.20
19033;DHT22;9649;51.042;13.804;2023-05-07T09:52:06;14.90;1.00
19033;DHT22;9649;51.042;13.804;2023-05-07T09:57:11;15.40;99.90
19033;DHT22;9649;51.042;13.804;2023-05-07T10:02:18;15.10;1.00
19033;DHT22;9649;51.042;13.804;2023-05-07T10:07:21;15.20;1.00
19033;DHT22;9649;51.042;13.804;2023-05-07T10:12:25;16.20;99.90
19033;DHT22;9649;51.042;13.804;2023-05-07T10:17:30;17.20;55.30
19033;DHT22;9649;51.042;13.804;2023-05-07T10:22:37;17.20;1.00
19033;DHT22;9649;51.042;13.804;2023-05-07T10:27:42;16.60;1.00
19033;DHT22;9649;51.042;13.804;2023-05-07T10:32:49;16.50;1.00
19033;DHT22;9649;51.042;13.804;2023-05-07T10:37:53;15.80;90.00
19033;DHT22;9649;51.042;13.804;2023-05-07T10:42:56;16.30;83.70
19033;DHT22;9649;51.042;13.804;2023-05-07T10:48:09;17.30;1.00
19033;DHT22;9649;51.042;13.804;2023-05-07T10:53:29;17.90;1.00
19033;DHT22;9649;51.042;13.804;2023-05-07T10:58:32;18.10;1.00
19033;DHT22;9649;51.042;13.804;2023-05-07T11:04:14;18.50;1.00
19033;DHT22;9649;51.042;13.804;2023-05-07T11:09:18;18.00;1.00
19033;DHT22;9649;51.042;13.804;2023-05-07T11:14:45;17.50;1.00
19033;DHT22;9649;51.042;13.804;2023-05-07T11:19:50;17.20;1.00
19033;DHT22;9649;51.042;13.804;2023-05-07T11:24:53;17.00;1.00
19033;DHT22;9649;51.042;13.804;2023-05-07T11:29:56;17.00;1.00
19033;DHT22;9649;51.042;13.804;2023-05-07T11:35:00;17.40;1.00
19033;DHT22;9649;51.042;13.804;2023-05-07T11:40:04;17.60;1.00
19033;DHT22;9649;51.042;13.804;2023-05-07T11:45:09;17.30;1.00
19033;DHT22;9649;51.042;13.804;2023-05-07T11:50:13;17.30;1.00
19033;DHT22;9649;51.042;13.804;2023-05-07T11:55:18;17.40;1.00
19033;DHT22;9649;51.042;13.804;2023-05-07T12:00:21;17.70;1.00
19033;DHT22;9649;51.042;13.804;2023-05-07T12:05:25;17.80;1.00
19033;DHT22;9649;51.042;13.804;2023-05-07T12:10:28;18.30;1.00
19033;DHT22;9649;51.042;13.804;2023-05-07T12:15:31;18.40;1.00
19033;DHT22;9649;51.042;13.804;2023-05-07T12:20:35;18.80;1.00
19033;DHT22;9649;51.042;13.804;2023-05-07T12:25:39;19.10;1.00
19033;DHT22;9649;51.042;13.804;2023-05-07T12:30:45;19.00;1.00
19033;DHT22;9649;51.042;13.804;2023-05-07T12:35:50;18.90;1.00
19033;DHT22;9649;51.042;13.804;2023-05-07T12:40:54;18.80;1.00
19033;DHT22;9649;51.042;13.804;2023-05-07T12:45:59;19.60;1.00
19033;DHT22;9649;51.042;13.804;2023-05-07T12:51:05;21.30;1.00
19033;DHT22;9649;51.042;13.804;2023-05-07T12:56:08;22.10;1.00
19033;DHT22;9649;51.042;13.804;2023-05-07T13:01:11;22.40;1.00
19033;DHT22;9649;51.042;13.804;2023-05-07T13:06:18;21.40;1.00
19033;DHT22;9649;51.042;13.804;2023-05-07T13:11:21;20.60;1.00
19033;DHT22;9649;51.042;13.804;2023-05-07T13:16:23;20.20;1.00
19033;DHT22;9649;51.042;13.804;2023-05-07T13:21:28;20.30;1.00
19033;DHT22;9649;51.042;13.804;2023-05-07T13:26:32;20.60;1.00
19033;DHT22;9649;51.042;13.804;2023-05-07T13:31:34;20.00;1.00
19033;DHT22;9649;51.042;13.804;2023-05-07T13:36:39;20.20;1.00
19033;DHT22;9649;51.042;13.804;2023-05-07T13:41:43;20.40;1.00
19033;DHT22;9649;51.042;13.804;2023-05-07T13:46:46;19.90;1.00
19033;DHT22;9649;51.042;13.804;2023-05-07T13:51:50;19.60;1.00
19033;DHT22;9649;51.042;13.804;2023-05-07T13:56:53;20.40;1.00
19033;DHT22;9649;51.042;13.804;2023-05-07T14:01:55;21.20;1.00
19033;DHT22;9649;51.042;13.804;2023-05-07T14:06:59;21.30;1.00
19033;DHT22;9649;51.042;13.804;2023-05-07T14:12:02;20.40;1.00
19033;DHT22;9649;51.042;13.804;2023-05-07T14:17:05;19.60;1.00
19033;DHT22;9649;51.042;13.804;2023-05-07T14:22:12;19.30;1.00
19033;DHT22;9649;51.042;13.804;2023-05-07T14:27:15;20.00;1.00
19033;DHT22;9649;51.042;13.804;2023-05-07T14:32:18;20.20;1.00
19033;DHT22;9649;51.042;13.804;2023-05-07T14:37:23;19.80;1.00
19033;DHT22;9649;51.042;13.804;2023-05-07T14:42:26;20.10;1.00
19033;DHT22;9649;51.042;13.804;2023-05-07T14:47:28;19.90;1.00
19033;DHT22;9649;51.042;13.804;2023-05-07T14:52:32;20.10;1.00
19033;DHT22;9649;51.042;13.804;2023-05-07T14:57:35;19.80;1.00
19033;DHT22;9649;51.042;13.804;2023-05-07T15:02:38;19.50;1.00
19033;DHT22;9649;51.042;13.804;2023-05-07T15:07:42;19.10;1.00
19033;DHT22;9649;51.042;13.804;2023-05-07T15:12:46;18.30;1.00
19033;DHT22;9649;51.042;13.804;2023-05-07T15:17:49;18.10;1.00
19033;DHT22;9649;51.042;13.804;2023-05-07T15:22:53;17.70;1.00
19033;DHT22;9649;51.042;13.804;2023-05-07T15:27:56;17.50;1.00
19033;DHT22;9649;51.042;13.804;2023-05-07T15:32:59;17.10;1.00
19033;DHT22;9649;51.042;13.804;2023-05-07T15:38:03;16.90;1.00
19033;DHT22;9649;51.042;13.804;2023-05-07T15:43:08;16.80;1.00
19033;DHT22;9649;51.042;13.804;2023-05-07T15:48:10;17.00;1.00
19033;DHT22;9649;51.042;13.804;2023-05-07T15:53:14;17.10;1.00
19033;DHT22;9649;51.042;13.804;2023-05-07T15:58:17;17.10;1.00
19033;DHT22;9649;51.042;13.804;2023-05-07T16:03:22;17.00;1.00
19033;DHT22;9649;51.042;13.804;2023-05-07T16:08:26;16.80;1.00
19033;DHT22;9649;51.042;13.804;2023-05-07T16:13:29;16.50;1.00
19033;DHT22;9649;51.042;13.804;2023-05-07T16:18:32;16.30;1.00
19033;DHT22;9649;51.042;13.804;2023-05-07T16:23:37;16.10;1.00
19033;DHT22;9649;51.042;13.804;2023-05-07T16:28:40;16.10;1.00
19033;DHT22;9649;51.042;13.804;2023-05-07T16:33:42;15.90;1.00
19033;DHT22;9649;51.042;13.804;2023-05-07T16:38:46;15.30;99.90
19033;DHT22;9649;51.042;13.804;2023-05-07T16:43:49;15.00;99.90
19033;DHT22;9649;51.042;13.804;2023-05-07T16:48:52;15.30;99.90
19033;DHT22;9649;51.042;13.804;2023-05-07T16:53:56;15.30;99.90
19033;DHT22;9649;51.042;13.804;2023-05-07T16:58:59;15.40;47.90
19033;DHT22;9649;51.042;13.804;2023-05-07T17:04:01;14.90;99.90
19033;DHT22;9649;51.042;13.804;2023-05-07T17:09:06;14.40;1.00
19033;DHT22;9649;51.042;13.804;2023-05-07T17:14:09;14.70;1.00
19033;DHT22;9649;51.042;13.804;2023-05-07T17:19:12;15.50;99.90
19033;DHT22;9649;51.042;13.804;2023-05-07T17:24:17;15.90;1.00
19033;DHT22;9649;51.042;13.804;2023-05-07T17:29:19;16.00;1.00
19033;DHT22;9649;51.042;13.804;2023-05-07T17:34:22;15.60;1.00
19033;DHT22;9649;51.042;13.804;2023-05-07T17:39:26;15.20;1.00
19033;DHT22;9649;51.042;13.804;2023-05-07T17:44:29;14.90;1.00
19033;DHT22;9649;51.042;13.804;2023-05-07T17:49:32;14.40;99.90
19033;DHT22;9649;51.042;13.804;2023-05-07T17:54:36;13.90;99.90
19033;DHT22;9649;51.042;13.804;2023-05-07T17:59:39;13.60;1.00
19033;DHT22;9649;51.042;13.804;2023-05-07T18:04:42;13.10;1.00
19033;DHT22;9649;51.042;13.804;2023-05-07T18:09:46;12.80;1.00
19033;DHT22;9649;51.042;13.804;2023-05-07T18:14:49;12.60;1.00
19033;DHT22;9649;51.042;13.804;2023-05-07T18:19:51;12.30;99.90
19033;DHT22;9649;51.042;13.804;2023-05-07T18:24:57;12.20;99.90
19033;DHT22;9649;51.042;13.804;2023-05-07T18:30:00;11.90;1.00
19033;DHT22;9649;51.042;13.804;2023-05-07T18:35:04;11.40;99.90
19033;DHT22;9649;51.042;13.804;2023-05-07T18:40:09;11.00;99.90
19033;DHT22;9649;51.042;13.804;2023-05-07T18:45:12;10.90;1.00
19033;DHT22;9649;51.042;13.804;2023-05-07T18:50:15;10.60;1.00
19033;DHT22;9649;51.042;13.804;2023-05-07T18:55:19;10.60;99.90
19033;DHT22;9649;51.042;13.804;2023-05-07T19:00:22;10.30;1.00
19033;DHT22;9649;51.042;13.804;2023-05-07T19:05:25;10.40;99.90
19033;DHT22;9649;51.042;13.804;2023-05-07T19:10:29;10.30;1.00
19033;DHT22;9649;51.042;13.804;2023-05-07T19:15:32;10.20;99.90
19033;DHT22;9649;51.042;13.804;2023-05-07T19:20:35;10.00;1.00
19033;DHT22;9649;51.042;13.804;2023-05-07T19:25:39;9.80;1.00
19033;DHT22;9649;51.042;13.804;2023-05-07T19:30:42;9.80;1.00
19033;DHT22;9649;51.042;13.804;2023-05-07T19:35:44;9.50;99.90
19033;DHT22;9649;51.042;13.804;2023-05-07T19:40:48;9.60;1.00
19033;DHT22;9649;51.042;13.804;2023-05-07T19:45:54;9.60;99.90
19033;DHT22;9649;51.042;13.804;2023-05-07T19:50:57;9.60;1.00
19033;DHT22;9649;51.042;13.804;2023-05-07T19:56:04;9.20;99.90
19033;DHT22;9649;51.042;13.804;2023-05-07T20:01:07;9.30;99.90
19033;DHT22;9649;51.042;13.804;2023-05-07T20:06:10;9.10;1.00
19033;DHT22;9649;51.042;13.804;2023-05-07T20:11:14;8.90;1.00
19033;DHT22;9649;51.042;13.804;2023-05-07T20:16:17;8.90;1.00
19033;DHT22;9649;51.042;13.804;2023-05-07T20:21:20;9.10;1.00
19033;DHT22;9649;51.042;13.804;2023-05-07T20:26:24;9.10;1.00
19033;DHT22;9649;51.042;13.804;2023-05-07T20:31:28;9.20;99.90
19033;DHT22;9649;51.042;13.804;2023-05-07T20:36:34;9.40;1.00
19033;DHT22;9649;51.042;13.804;2023-05-07T20:41:39;9.70;1.00
19033;DHT22;9649;51.042;13.804;2023-05-07T20:46:42;9.80;1.00
19033;DHT22;9649;51.042;13.804;2023-05-07T20:51:45;9.80;1.00
19033;DHT22;9649;51.042;13.804;2023-05-07T20:56:49;9.80;1.00
19033;DHT22;9649;51.042;13.804;2023-05-07T21:01:51;9.70;19.30
19033;DHT22;9649;51.042;13.804;2023-05-07T21:06:55;9.70;1.00
19033;DHT22;9649;51.042;13.804;2023-05-07T21:11:59;9.40;1.00
19033;DHT22;9649;51.042;13.804;2023-05-07T21:17:02;9.10;1.00
19033;DHT22;9649;51.042;13.804;2023-05-07T21:22:07;9.00;1.00
19033;DHT22;9649;51.042;13.804;2023-05-07T21:27:11;8.80;1.00
19033;DHT22;9649;51.042;13.804;2023-05-07T21:32:14;8.70;1.00
19033;DHT22;9649;51.042;13.804;2023-05-07T21:37:17;8.50;1.00
19033;DHT22;9649;51.042;13.804;2023-05-07T21:42:22;8.40;99.90
19033;DHT22;9649;51.042;13.804;2023-05-07T21:47:24;8.30;1.00
19033;DHT22;9649;51.042;13.804;2023-05-07T21:52:27;8.40;99.90
19033;DHT22;9649;51.042;13.804;2023-05-07T21:57:31;8.40;1.00
19033;DHT22;9649;51.042;13.804;2023-05-07T22:02:34;8.30;99.90
19033;DHT22;9649;51.042;13.804;2023-05-07T22:07:37;8.10;99.90
19033;DHT22;9649;51.042;13.804;2023-05-07T22:12:41;8.10;1.00
19033;DHT22;9649;51.042;13.804;2023-05-07T22:17:44;8.10;1.00
19033;DHT22;9649;51.042;13.804;2023-05-07T22:22:47;8.20;99.90
19033;DHT22;9649;51.042;13.804;2023-05-07T22:27:54;8.30;1.00
19033;DHT22;9649;51.042;13.804;2023-05-07T22:32:57;8.30;1.00
19033;DHT22;9649;51.042;13.804;2023-05-07T22:37:59;8.30;1.00
19033;DHT22;9649;51.042;13.804;2023-05-07T22:43:03;8.20;23.90
19033;DHT22;9649;51.042;13.804;2023-05-07T22:48:06;8.00;1.00
19033;DHT22;9649;51.042;13.804;2023-05-07T22:53:09;7.90;1.00
19033;DHT22;9649;51.042;13.804;2023-05-07T22:58:13;7.70;99.90
19033;DHT22;9649;51.042;13.804;2023-05-07T23:03:16;7.80;99.90
19033;DHT22;9649;51.042;13.804;2023-05-07T23:08:19;7.70;99.90
19033;DHT22;9649;51.042;13.804;2023-05-07T23:13:23;7.90;99.90
19033;DHT22;9649;51.042;13.804;2023-05-07T23:18:26;8.10;1.00
19033;DHT22;9649;51.042;13.804;2023-05-07T23:23:32;8.30;1.00
19033;DHT22;9649;51.042;13.804;2023-05-07T23:28:36;8.40;99.90
19033;DHT22;9649;51.042;13.804;2023-05-07T23:33:39;8.40;1.00
19033;DHT22;9649;51.042;13.804;2023-05-07T23:38:42;8.40;1.00
19033;DHT22;9649;51.042;13.804;2023-05-07T23:43:46;8.20;1.00
19033;DHT22;9649;51.042;13.804;2023-05-07T23:48:48;7.80;1.00
19033;DHT22;9649;51.042;13.804;2023-05-07T23:53:51;7.40;1.00
19033;DHT22;9649;51.042;13.804;2023-05-07T23:58:55;7.40;1.00
